Weather at Aérodrome Morin - Védrines

Public forecast

Using degrees Celsius for public forecast. Weather courtesy of forecast.io.

Current aviation weather report (METAR) for Aérodrome Morin - Védrines

Report is more than 6 hours old.

Retrieved 2012/05/02 07:00 UTC (10 years ago):

LFDB 020700Z VRB03KT CAVOK 12/09 Q1017

Closest aviation forecast (TAF) to Aérodrome Morin - Védrines

Closest forecast is Toulouse-Blagnac Airport, 23.8 nm (44.1 km) S. Retrieved 2022/06/29 18:47 UTC (4 hours ago):

TAF LFBO 291700Z 2918/3024 36004KT CAVOK BECMG 2919/2921 28010KT SCT050 FEW080CB BECMG 2923/3001 BKN035 PROB30 TEMPO 3003/3008 BKN014 BKN040